createdAt,value
2022-08-16T00:00:30.017Z,12.60
2022-08-16T00:03:13.536Z,11.35
2022-08-16T00:05:47.979Z,10.05
2022-08-16T00:08:35.848Z,14.10
2022-08-16T00:11:15.808Z,12.55
2022-08-16T00:13:55.615Z,13.90
2022-08-16T00:17:05.947Z,13.98
2022-08-16T00:19:24.102Z,13.05
2022-08-16T00:22:00.999Z,13.63
2022-08-16T00:24:33.011Z,11.85
2022-08-16T00:27:04.338Z,10.55
2022-08-16T00:29:32.846Z,8.70
2022-08-16T00:32:06.646Z,12.40
2022-08-16T00:34:44.921Z,14.05
2022-08-16T00:37:24.638Z,12.50
2022-08-16T00:39:59.313Z,12.88
2022-08-16T00:42:31.631Z,11.73
2022-08-16T00:45:12.148Z,17.25
2022-08-16T00:47:49.396Z,13.15
2022-08-16T00:50:35.761Z,15.50
2022-08-16T00:53:10.095Z,14.45
2022-08-16T00:55:44.371Z,13.18
2022-08-16T00:58:16.278Z,10.80
2022-08-16T01:00:54.068Z,15.07
2022-08-16T01:03:30.382Z,15.05
2022-08-16T01:06:39.540Z,13.93
2022-08-16T01:08:56.970Z,14.43
2022-08-16T01:11:29.505Z,15.07
2022-08-16T01:16:31.261Z,15.43
2022-08-16T01:19:15.363Z,15.38
2022-08-16T01:21:54.891Z,16.95
2022-08-16T01:24:53.722Z,15.32
2022-08-16T01:27:34.669Z,17.65
2022-08-16T01:30:34.886Z,15.15
2022-08-16T01:33:14.595Z,16.13
2022-08-16T01:36:11.775Z,16.70
2022-08-16T01:38:53.127Z,16.88
2022-08-16T01:41:30.689Z,16.08
2022-08-16T01:44:04.381Z,18.25
2022-08-16T01:46:47.132Z,20.42
2022-08-16T01:49:42.970Z,18.52
2022-08-16T01:52:29.925Z,19.40
2022-08-16T01:55:25.203Z,16.38
2022-08-16T01:57:56.327Z,17.98
2022-08-16T02:00:28.865Z,20.95
2022-08-16T02:02:59.345Z,20.20
2022-08-16T02:05:30.374Z,21.92
2022-08-16T02:08:04.662Z,23.92
2022-08-16T02:10:34.365Z,21.38
2022-08-16T02:13:08.474Z,23.15
2022-08-16T02:15:43.933Z,21.23
2022-08-16T02:18:18.681Z,20.50
2022-08-16T02:20:53.692Z,22.55
2022-08-16T02:23:30.885Z,20.45
2022-08-16T02:25:59.391Z,19.85
2022-08-16T02:28:28.773Z,25.95
2022-08-16T02:31:03.027Z,20.50
2022-08-16T02:33:44.451Z,21.33
2022-08-16T02:36:47.987Z,22.75
2022-08-16T02:39:22.390Z,23.65
2022-08-16T02:41:53.623Z,21.77
2022-08-16T02:44:27.081Z,19.52
2022-08-16T02:46:58.601Z,25.67
2022-08-16T02:49:32.261Z,22.92
2022-08-16T02:52:29.165Z,21.98
2022-08-16T02:55:04.448Z,22.67
2022-08-16T02:57:33.930Z,22.65
2022-08-16T03:00:33.632Z,21.13
2022-08-16T03:02:58.059Z,23.15
2022-08-16T03:05:30.921Z,22.35
2022-08-16T03:08:05.128Z,27.85
2022-08-16T03:10:39.840Z,21.30
2022-08-16T03:13:12.628Z,20.50
2022-08-16T03:15:41.289Z,17.33
2022-08-16T03:18:12.413Z,20.45
2022-08-16T03:20:45.411Z,19.65
2022-08-16T03:23:24.113Z,20.65
2022-08-16T03:25:52.757Z,20.55
2022-08-16T03:28:20.834Z,21.85
2022-08-16T03:30:49.256Z,21.13
2022-08-16T03:33:18.865Z,19.00
2022-08-16T03:36:19.953Z,17.90
2022-08-16T03:38:54.006Z,20.13
2022-08-16T03:41:25.092Z,17.20
2022-08-16T03:43:56.545Z,23.77
2022-08-16T03:46:48.374Z,22.48
2022-08-16T03:49:18.071Z,21.08
2022-08-16T03:51:53.377Z,18.30
2022-08-16T03:54:28.536Z,22.27
2022-08-16T03:56:59.923Z,26.00
2022-08-16T03:59:31.447Z,20.95
2022-08-16T04:02:10.597Z,18.45
2022-08-16T04:04:54.017Z,21.50
2022-08-16T04:07:24.715Z,19.13
2022-08-16T04:09:54.180Z,21.45
2022-08-16T04:12:54.283Z,20.48
2022-08-16T04:15:17.369Z,18.05
2022-08-16T04:18:07.086Z,20.75
2022-08-16T04:20:41.653Z,20.90
2022-08-16T04:23:11.488Z,17.83
2022-08-16T04:25:42.362Z,22.70
2022-08-16T04:28:29.184Z,17.10
2022-08-16T04:31:03.857Z,23.15
2022-08-16T04:33:50.591Z,22.25
2022-08-16T04:36:20.628Z,22.48
2022-08-16T04:39:04.962Z,25.65
2022-08-16T04:41:37.559Z,22.30
2022-08-16T04:44:31.079Z,22.33
2022-08-16T04:47:02.429Z,23.65
2022-08-16T04:49:43.994Z,21.23
2022-08-16T04:52:33.404Z,22.15
2022-08-16T04:55:12.314Z,22.67
2022-08-16T04:57:43.682Z,23.48
2022-08-16T05:00:31.089Z,27.65
2022-08-16T05:03:15.276Z,22.90
2022-08-16T05:05:59.382Z,30.58
2022-08-16T05:08:31.426Z,27.27
2022-08-16T05:11:22.570Z,26.20
2022-08-16T05:13:51.894Z,22.95
2022-08-16T05:16:27.923Z,22.08
2022-08-16T05:19:11.641Z,24.55
2022-08-16T05:22:00.527Z,24.40
2022-08-16T05:24:31.313Z,26.73
2022-08-16T05:26:59.194Z,25.38
2022-08-16T05:29:59.998Z,26.15
2022-08-16T05:32:36.614Z,26.17
2022-08-16T05:35:16.006Z,24.80
2022-08-16T05:38:01.879Z,24.00
2022-08-16T05:40:34.813Z,21.05
2022-08-16T05:43:05.036Z,25.23
2022-08-16T05:45:33.980Z,26.58
2022-08-16T05:48:07.542Z,28.27
2022-08-16T05:50:46.469Z,24.65
2022-08-16T05:53:24.647Z,24.52
2022-08-16T05:56:19.542Z,26.20
2022-08-16T05:58:50.801Z,26.77
2022-08-16T06:01:20.069Z,27.20
2022-08-16T06:03:52.190Z,24.92
2022-08-16T06:06:28.067Z,31.77
2022-08-16T06:08:57.783Z,24.98
2022-08-16T06:11:29.466Z,25.85
2022-08-16T06:14:13.339Z,27.50
2022-08-16T06:16:45.013Z,29.23
2022-08-16T06:19:23.707Z,25.55
2022-08-16T06:22:03.371Z,26.13
2022-08-16T06:24:53.952Z,25.65
2022-08-16T06:27:21.637Z,25.55
2022-08-16T06:29:51.703Z,26.85
2022-08-16T06:32:27.164Z,26.50
2022-08-16T06:35:02.478Z,26.70
2022-08-16T06:37:37.387Z,26.48
2022-08-16T06:40:12.664Z,25.70
2022-08-16T06:42:57.299Z,26.98
2022-08-16T06:45:43.206Z,28.08
2022-08-16T06:48:14.440Z,26.75
2022-08-16T06:50:51.037Z,27.63
2022-08-16T06:53:21.491Z,27.52
2022-08-16T06:56:14.622Z,27.95
2022-08-16T06:59:20.234Z,25.23
2022-08-16T07:01:58.022Z,25.20
2022-08-16T07:04:33.401Z,29.00
2022-08-16T07:07:23.044Z,27.52
2022-08-16T07:10:01.302Z,27.05
2022-08-16T07:12:47.518Z,24.80
2022-08-16T07:15:34.211Z,24.58
2022-08-16T07:18:04.353Z,27.80
2022-08-16T07:20:43.579Z,29.48
2022-08-16T07:23:19.019Z,27.55
2022-08-16T07:28:37.770Z,25.55
2022-08-16T07:31:13.075Z,21.33
2022-08-16T07:33:51.932Z,27.40
2022-08-16T07:36:33.830Z,21.02
2022-08-16T07:39:05.766Z,25.50
2022-08-16T07:41:36.676Z,20.73
2022-08-16T07:44:16.829Z,19.38
2022-08-16T07:46:47.536Z,18.30
2022-08-16T07:49:24.989Z,19.52
2022-08-16T07:51:54.525Z,23.53
2022-08-16T07:54:37.867Z,20.35
2022-08-16T07:57:11.786Z,23.85
2022-08-16T07:59:42.913Z,19.90
2022-08-16T08:02:20.026Z,20.20
2022-08-16T08:05:00.267Z,18.45
2022-08-16T08:07:36.805Z,21.05
2022-08-16T08:10:11.054Z,20.42
2022-08-16T08:12:40.540Z,22.20
2022-08-16T08:15:14.099Z,22.58
2022-08-16T08:17:44.100Z,26.38
2022-08-16T08:20:28.301Z,18.63
2022-08-16T08:23:01.448Z,21.90
2022-08-16T08:25:55.123Z,23.58
2022-08-16T08:28:27.105Z,19.45
2022-08-16T08:31:03.787Z,20.60
2022-08-16T08:33:43.825Z,18.58
2022-08-16T08:36:22.862Z,21.38
2022-08-16T08:41:28.467Z,23.02
2022-08-16T08:44:28.509Z,21.58
2022-08-16T08:47:00.716Z,20.27
2022-08-16T08:49:46.901Z,23.65
2022-08-16T08:52:34.868Z,25.45
2022-08-16T08:55:14.753Z,21.42
2022-08-16T08:57:46.350Z,21.58
2022-08-16T09:00:30.323Z,20.40
2022-08-16T09:03:04.343Z,18.30
2022-08-16T09:05:37.492Z,21.40
2022-08-16T09:08:09.339Z,22.35
2022-08-16T09:10:59.151Z,24.63
2022-08-16T09:13:51.205Z,21.50
2022-08-16T09:17:05.144Z,24.05
2022-08-16T09:19:15.154Z,24.30
2022-08-16T09:21:43.139Z,22.85
2022-08-16T09:24:13.223Z,25.75
2022-08-16T09:27:09.286Z,20.83
2022-08-16T09:29:45.674Z,19.83
2022-08-16T09:32:28.831Z,22.00
2022-08-16T09:35:02.232Z,23.35
2022-08-16T09:38:12.145Z,26.33
2022-08-16T09:40:47.084Z,26.83
2022-08-16T09:43:57.906Z,28.35
2022-08-16T09:46:49.156Z,29.92
2022-08-16T09:49:03.473Z,28.23
2022-08-16T09:51:36.516Z,30.25
2022-08-16T09:54:06.314Z,25.33
2022-08-16T09:56:39.494Z,29.73
2022-08-16T09:59:25.240Z,24.50
2022-08-16T10:02:00.251Z,25.08
2022-08-16T10:04:54.674Z,24.75
2022-08-16T10:07:44.054Z,25.98
2022-08-16T10:10:30.387Z,28.30
2022-08-16T10:13:16.262Z,28.73
2022-08-16T10:15:59.997Z,26.85
2022-08-16T10:18:56.849Z,27.33
2022-08-16T10:21:24.647Z,28.33
2022-08-16T10:24:05.928Z,24.38
2022-08-16T10:27:18.069Z,24.65
2022-08-16T10:29:59.978Z,26.83
2022-08-16T10:32:20.872Z,28.65
2022-08-16T10:34:52.235Z,27.00
2022-08-16T10:37:32.198Z,29.80
2022-08-16T10:40:02.289Z,26.60
2022-08-16T10:42:30.677Z,30.23
2022-08-16T10:44:58.552Z,27.40
2022-08-16T10:47:32.155Z,28.10
2022-08-16T10:50:07.053Z,20.63
2022-08-16T10:52:58.743Z,22.73
2022-08-16T10:55:45.507Z,26.17
2022-08-16T10:58:16.976Z,23.90
2022-08-16T11:01:43.166Z,25.95
2022-08-16T11:12:52.695Z,20.42
2022-08-16T11:15:22.212Z,20.70
2022-08-16T11:20:49.519Z,27.27
2022-08-16T11:23:21.664Z,22.80
2022-08-16T11:26:16.306Z,24.15
2022-08-16T11:31:37.153Z,19.40
2022-08-16T11:34:09.347Z,17.38
2022-08-16T11:36:57.251Z,16.38
2022-08-16T11:39:32.167Z,15.73
2022-08-16T11:42:23.055Z,19.13
2022-08-16T11:44:56.291Z,11.80
2022-08-16T11:47:25.153Z,12.30
2022-08-16T11:49:56.419Z,9.95
2022-08-16T11:52:24.191Z,6.43
2022-08-16T11:55:00.155Z,4.70
2022-08-16T11:57:28.146Z,5.03
2022-08-16T11:59:58.523Z,5.03
2022-08-16T12:05:01.009Z,6.78
2022-08-16T12:07:35.125Z,4.68
2022-08-16T12:10:08.109Z,6.40
2022-08-16T12:12:37.795Z,3.63
2022-08-16T12:15:06.697Z,6.25
2022-08-16T12:17:34.897Z,6.88
2022-08-16T12:20:13.992Z,4.25
2022-08-16T12:22:49.314Z,4.20
2022-08-16T12:25:19.347Z,3.47
2022-08-16T12:27:56.649Z,7.15
2022-08-16T12:30:34.899Z,9.97
2022-08-16T12:33:11.651Z,5.65
2022-08-16T12:35:48.509Z,6.70
2022-08-16T12:38:41.759Z,4.03
2022-08-16T12:41:11.199Z,6.57
2022-08-16T12:43:45.225Z,6.68
2022-08-16T12:46:13.942Z,9.20
2022-08-16T12:49:01.113Z,7.05
2022-08-16T12:51:58.468Z,5.90
2022-08-16T12:54:27.871Z,5.40
2022-08-16T12:56:56.397Z,6.40
2022-08-16T12:59:34.083Z,7.28
2022-08-16T13:02:07.037Z,5.47
2022-08-16T13:04:40.627Z,5.05
2022-08-16T13:07:11.923Z,5.18
2022-08-16T13:09:53.830Z,6.32
2022-08-16T13:12:34.885Z,3.97
2022-08-16T13:15:17.703Z,3.45
2022-08-16T13:17:54.391Z,3.42
2022-08-16T13:20:25.642Z,4.20
2022-08-16T13:23:07.699Z,6.72
2022-08-16T13:25:44.014Z,3.42
2022-08-16T13:28:15.320Z,3.50
2022-08-16T13:30:56.394Z,3.97
2022-08-16T13:33:31.352Z,5.18
2022-08-16T13:36:01.084Z,2.90
2022-08-16T13:38:37.635Z,4.93
2022-08-16T13:44:15.683Z,5.40
2022-08-16T13:46:49.391Z,4.68
2022-08-16T13:49:18.821Z,2.70
2022-08-16T13:51:48.369Z,3.53
2022-08-16T13:56:51.232Z,3.00
2022-08-16T13:59:25.154Z,2.20
2022-08-16T14:02:02.579Z,5.53
2022-08-16T14:04:36.540Z,5.97
2022-08-16T14:07:10.053Z,2.55
2022-08-16T14:09:38.263Z,3.90
2022-08-16T14:12:17.625Z,3.20
2022-08-16T14:14:47.098Z,4.07
2022-08-16T14:17:18.516Z,3.90
2022-08-16T14:19:49.933Z,5.88
2022-08-16T14:22:34.913Z,3.33
2022-08-16T14:25:18.601Z,4.03
2022-08-16T14:27:47.630Z,4.70
2022-08-16T14:30:21.683Z,6.57
2022-08-16T14:32:51.414Z,5.00
2022-08-16T14:35:36.748Z,5.20
2022-08-16T14:38:18.552Z,4.70
2022-08-16T14:40:52.689Z,7.72
2022-08-16T14:43:25.619Z,6.93
2022-08-16T14:45:57.741Z,7.65
2022-08-16T14:48:26.564Z,7.15
2022-08-16T14:50:55.721Z,5.40
2022-08-16T14:53:25.637Z,9.32
2022-08-16T14:55:55.198Z,10.90
2022-08-16T14:58:34.857Z,6.90
2022-08-16T15:01:09.835Z,9.38
2022-08-16T15:06:16.296Z,6.70
2022-08-16T15:08:48.699Z,7.43
2022-08-16T15:11:24.186Z,6.72
2022-08-16T15:13:52.323Z,9.18
2022-08-16T15:16:23.757Z,8.23
2022-08-16T15:18:58.939Z,9.68
2022-08-16T15:21:30.292Z,9.60
2022-08-16T15:24:00.199Z,8.50
2022-08-16T15:26:34.555Z,7.55
2022-08-16T15:29:10.677Z,10.38
2022-08-16T15:31:41.483Z,8.45
2022-08-16T15:34:18.976Z,9.90
2022-08-16T15:36:52.457Z,10.93
2022-08-16T15:39:29.787Z,9.88
2022-08-16T15:42:11.132Z,8.40
2022-08-16T15:44:51.920Z,8.10
2022-08-16T15:47:29.438Z,8.77
2022-08-16T15:50:01.788Z,8.60
2022-08-16T15:52:37.097Z,10.68
2022-08-16T15:55:23.943Z,9.60
2022-08-16T15:57:57.006Z,9.93
2022-08-16T16:00:31.276Z,8.75
2022-08-16T16:03:25.970Z,10.02
2022-08-16T16:05:59.494Z,11.70
2022-08-16T16:08:38.903Z,12.48
2022-08-16T16:11:21.125Z,10.68
2022-08-16T16:14:24.663Z,10.85
2022-08-16T16:17:00.988Z,11.82
2022-08-16T16:19:32.245Z,12.27
2022-08-16T16:24:30.720Z,14.30
2022-08-16T16:27:11.037Z,19.13
2022-08-16T16:29:41.725Z,15.70
2022-08-16T16:32:14.380Z,12.02
2022-08-16T16:37:18.224Z,12.63
2022-08-16T16:39:46.353Z,12.63
2022-08-16T16:42:29.548Z,16.50
2022-08-16T16:45:01.560Z,16.00
2022-08-16T16:47:40.573Z,15.60
2022-08-16T16:50:09.597Z,15.98
2022-08-16T16:52:45.202Z,14.82
2022-08-16T16:55:14.743Z,12.70
2022-08-16T16:58:03.422Z,15.95
2022-08-16T17:00:38.242Z,18.45
2022-08-16T17:03:16.825Z,16.60
2022-08-16T17:05:57.003Z,17.77
2022-08-16T17:08:32.487Z,18.02
2022-08-16T17:11:02.104Z,16.73
2022-08-16T17:13:34.903Z,17.27
2022-08-16T17:16:03.286Z,17.25
2022-08-16T17:19:17.789Z,17.58
2022-08-16T17:21:36.914Z,22.02
2022-08-16T17:26:57.929Z,20.10
2022-08-16T17:29:29.917Z,20.00
2022-08-16T17:32:34.438Z,19.15
2022-08-16T17:34:54.265Z,17.67
2022-08-16T17:37:52.477Z,22.02
2022-08-16T17:39:26.679Z,19.10
2022-08-16T17:40:58.911Z,19.25
2022-08-16T17:43:52.242Z,19.10
2022-08-16T17:46:50.569Z,17.02
2022-08-16T17:49:11.684Z,18.30
2022-08-16T17:51:42.232Z,17.60
2022-08-16T17:54:21.411Z,21.30
2022-08-16T17:57:01.325Z,19.35
2022-08-16T17:59:39.423Z,20.05
2022-08-16T18:02:43.436Z,23.08
2022-08-16T18:05:16.416Z,22.08
2022-08-16T18:07:45.552Z,19.85
2022-08-16T18:10:32.752Z,21.48
2022-08-16T18:13:02.431Z,20.38
2022-08-16T18:15:38.976Z,23.20
2022-08-16T18:18:16.413Z,23.08
2022-08-16T18:21:06.411Z,21.75
2022-08-16T18:23:36.126Z,22.23
2022-08-16T18:26:06.365Z,21.43
2022-08-16T18:28:35.241Z,21.73
2022-08-16T18:31:09.975Z,22.08
2022-08-16T18:33:43.905Z,23.58
2022-08-16T18:36:20.420Z,24.08
2022-08-16T18:38:50.651Z,23.27
2022-08-16T18:41:20.145Z,21.40
2022-08-16T18:44:23.654Z,21.43
2022-08-16T18:46:43.281Z,26.30
2022-08-16T18:49:17.853Z,21.10
2022-08-16T18:51:46.812Z,31.73
2022-08-16T18:54:19.166Z,23.77
2022-08-16T18:56:53.889Z,23.50
2022-08-16T18:59:32.999Z,25.73
2022-08-16T19:02:05.262Z,22.98
2022-08-16T19:04:50.512Z,22.83
2022-08-16T19:07:30.683Z,24.42
2022-08-16T19:10:02.887Z,22.80
2022-08-16T19:12:38.141Z,25.70
2022-08-16T19:15:17.261Z,27.15
2022-08-16T19:17:49.225Z,26.00
2022-08-16T19:20:23.917Z,24.63
2022-08-16T19:23:05.889Z,23.75
2022-08-16T19:25:54.374Z,26.48
2022-08-16T19:28:49.914Z,24.67
2022-08-16T19:31:28.229Z,25.80
2022-08-16T19:33:57.229Z,25.30
2022-08-16T19:36:37.697Z,26.13
2022-08-16T19:39:14.164Z,27.58
2022-08-16T19:41:53.331Z,28.15
2022-08-16T19:44:24.994Z,30.42
2022-08-16T19:46:53.538Z,26.63
2022-08-16T19:49:21.897Z,24.08
2022-08-16T19:51:50.705Z,25.48
2022-08-16T19:54:21.711Z,27.83
2022-08-16T19:57:05.594Z,27.30
2022-08-16T19:59:40.579Z,29.50
2022-08-16T20:02:35.671Z,28.20
2022-08-16T20:05:10.735Z,32.80
2022-08-16T20:07:39.055Z,26.50
2022-08-16T20:10:22.122Z,27.45
2022-08-16T20:13:02.158Z,28.67
2022-08-16T20:18:04.385Z,25.15
2022-08-16T20:20:45.261Z,24.88
2022-08-16T20:23:24.375Z,29.63
2022-08-16T20:26:02.285Z,25.83
2022-08-16T20:28:51.978Z,25.23
2022-08-16T20:31:26.268Z,22.95
2022-08-16T20:34:02.115Z,27.20
2022-08-16T20:36:30.355Z,25.58
2022-08-16T20:39:00.247Z,25.80
2022-08-16T20:41:32.049Z,25.07
2022-08-16T20:44:00.447Z,23.42
2022-08-16T20:46:29.047Z,24.60
2022-08-16T20:48:59.694Z,23.27
2022-08-16T20:51:27.733Z,23.20
2022-08-16T20:54:03.176Z,24.88
2022-08-16T20:56:31.386Z,23.08
2022-08-16T20:59:00.264Z,28.10
2022-08-16T21:01:45.654Z,25.27
2022-08-16T21:04:29.030Z,29.00
2022-08-16T21:06:59.431Z,26.52
2022-08-16T21:09:32.696Z,26.52
2022-08-16T21:12:04.915Z,23.80
2022-08-16T21:14:36.213Z,26.48
2022-08-16T21:17:10.324Z,28.35
2022-08-16T21:19:41.092Z,26.27
2022-08-16T21:22:57.515Z,27.10
2022-08-16T21:25:33.785Z,27.98
2022-08-16T21:28:36.811Z,27.27
2022-08-16T21:30:52.349Z,26.58
2022-08-16T21:33:25.761Z,28.20
2022-08-16T21:36:00.946Z,25.02
2022-08-16T21:38:30.890Z,27.92
2022-08-16T21:41:00.186Z,27.92
2022-08-16T21:43:33.109Z,27.25
2022-08-16T21:46:05.777Z,33.75
2022-08-16T21:48:40.723Z,25.15
2022-08-16T21:54:17.815Z,25.13
2022-08-16T21:56:49.760Z,28.20
2022-08-16T21:59:17.730Z,24.77
2022-08-16T22:01:46.987Z,25.77
2022-08-16T22:04:37.229Z,25.88
2022-08-16T22:07:06.385Z,24.02
2022-08-16T22:09:36.579Z,25.85
2022-08-16T22:12:08.646Z,26.77
2022-08-16T22:14:38.439Z,25.23
2022-08-16T22:17:09.583Z,28.10
2022-08-16T22:19:45.413Z,36.78
2022-08-16T22:22:14.168Z,23.50
2022-08-16T22:24:42.335Z,25.02
2022-08-16T22:27:10.436Z,28.38
2022-08-16T22:29:43.367Z,26.45
2022-08-16T22:32:13.074Z,27.30
2022-08-16T22:34:41.439Z,26.30
2022-08-16T22:37:15.068Z,25.50
2022-08-16T22:39:47.137Z,29.67
2022-08-16T22:42:15.917Z,26.38
2022-08-16T22:44:47.300Z,26.08
2022-08-16T22:47:15.906Z,30.20
2022-08-16T22:52:15.341Z,27.33
2022-08-16T22:55:05.881Z,25.95
2022-08-16T23:00:09.463Z,26.55
2022-08-16T23:02:56.649Z,30.30
2022-08-16T23:05:33.641Z,26.63
2022-08-16T23:08:04.275Z,25.05
2022-08-16T23:10:32.734Z,25.30
2022-08-16T23:13:11.107Z,29.80
2022-08-16T23:15:47.783Z,26.60
2022-08-16T23:18:27.253Z,28.08
2022-08-16T23:20:59.100Z,27.38
2022-08-16T23:23:31.145Z,29.40
2022-08-16T23:26:43.814Z,30.10
2022-08-16T23:29:00.981Z,34.08
2022-08-16T23:31:37.226Z,28.05
2022-08-16T23:34:08.854Z,27.20
2022-08-16T23:36:37.616Z,28.83
2022-08-16T23:39:34.337Z,30.45
2022-08-16T23:42:53.274Z,29.45
2022-08-16T23:45:36.835Z,32.67
2022-08-16T23:48:18.083Z,32.72
2022-08-16T23:51:01.934Z,36.75
2022-08-16T23:53:40.587Z,31.20
2022-08-16T23:56:21.056Z,31.73
